sensor_id;sensor_type;location;lat;lon;timestamp;pressure;altitude;pressure_sealevel;temperature;humidity
73501;BME280;61721;42.206;25.320;2023-06-14T00:00:20;99149.75;;;22.06;60.13
73501;BME280;61721;42.206;25.320;2023-06-14T00:02:59;99155.75;;;22.03;60.34
73501;BME280;61721;42.206;25.320;2023-06-14T00:05:36;99158.56;;;22.08;60.50
73501;BME280;61721;42.206;25.320;2023-06-14T00:08:15;99157.06;;;22.17;60.11
73501;BME280;61721;42.206;25.320;2023-06-14T00:10:53;99159.22;;;22.15;60.08
73501;BME280;61721;42.206;25.320;2023-06-14T00:13:29;99157.31;;;21.99;59.97
73501;BME280;61721;42.206;25.320;2023-06-14T00:16:05;99165.72;;;22.09;60.25
73501;BME280;61721;42.206;25.320;2023-06-14T00:18:43;99154.72;;;21.92;60.42
73501;BME280;61721;42.206;25.320;2023-06-14T00:21:19;99159.88;;;21.89;60.27
73501;BME280;61721;42.206;25.320;2023-06-14T00:23:55;99153.91;;;21.92;60.65
73501;BME280;61721;42.206;25.320;2023-06-14T00:26:31;99148.91;;;21.89;60.47
73501;BME280;61721;42.206;25.320;2023-06-14T00:29:07;99150.75;;;21.83;60.62
73501;BME280;61721;42.206;25.320;2023-06-14T00:31:43;99148.69;;;21.74;61.06
73501;BME280;61721;42.206;25.320;2023-06-14T00:34:22;99151.94;;;22.04;59.94
73501;BME280;61721;42.206;25.320;2023-06-14T00:36:58;99149.00;;;21.77;60.40
73501;BME280;61721;42.206;25.320;2023-06-14T00:39:34;99146.19;;;21.89;60.45
73501;BME280;61721;42.206;25.320;2023-06-14T00:42:10;99149.00;;;21.77;60.31
73501;BME280;61721;42.206;25.320;2023-06-14T00:44:46;99144.44;;;21.83;60.46
73501;BME280;61721;42.206;25.320;2023-06-14T00:47:22;99141.78;;;21.71;60.46
73501;BME280;61721;42.206;25.320;2023-06-14T00:50:02;99147.25;;;21.54;61.74
73501;BME280;61721;42.206;25.320;2023-06-14T00:52:39;99143.28;;;21.62;60.87
73501;BME280;61721;42.206;25.320;2023-06-14T00:55:22;99130.81;;;21.54;61.64
73501;BME280;61721;42.206;25.320;2023-06-14T00:57:58;99126.75;;;21.74;60.83
73501;BME280;61721;42.206;25.320;2023-06-14T01:00:34;99128.34;;;21.53;61.56
73501;BME280;61721;42.206;25.320;2023-06-14T01:03:10;99116.53;;;21.52;61.19
73501;BME280;61721;42.206;25.320;2023-06-14T01:06:04;99117.78;;;21.45;60.92
73501;BME280;61721;42.206;25.320;2023-06-14T01:08:50;99120.38;;;21.51;60.51
73501;BME280;61721;42.206;25.320;2023-06-14T01:11:32;99108.16;;;21.25;61.30
73501;BME280;61721;42.206;25.320;2023-06-14T01:14:10;99116.03;;;21.55;60.86
73501;BME280;61721;42.206;25.320;2023-06-14T01:16:48;99117.78;;;21.61;60.39
73501;BME280;61721;42.206;25.320;2023-06-14T01:19:27;99117.50;;;21.96;59.40
73501;BME280;61721;42.206;25.320;2023-06-14T01:22:06;99120.44;;;21.90;59.30
73501;BME280;61721;42.206;25.320;2023-06-14T01:27:22;99113.13;;;21.62;60.73
73501;BME280;61721;42.206;25.320;2023-06-14T01:30:00;99116.03;;;21.72;60.53
73501;BME280;61721;42.206;25.320;2023-06-14T01:32:37;99119.38;;;21.41;60.98
73501;BME280;61721;42.206;25.320;2023-06-14T01:35:14;99127.50;;;21.52;60.75
73501;BME280;61721;42.206;25.320;2023-06-14T01:37:51;99126.50;;;21.75;59.60
73501;BME280;61721;42.206;25.320;2023-06-14T01:40:31;99125.19;;;21.61;60.48
73501;BME280;61721;42.206;25.320;2023-06-14T01:43:09;99118.69;;;21.50;60.74
73501;BME280;61721;42.206;25.320;2023-06-14T01:45:47;99119.38;;;21.57;60.51
73501;BME280;61721;42.206;25.320;2023-06-14T01:48:24;99118.53;;;21.57;60.44
73501;BME280;61721;42.206;25.320;2023-06-14T01:51:00;99115.13;;;21.50;60.21
73501;BME280;61721;42.206;25.320;2023-06-14T01:53:44;99120.19;;;21.41;61.08
73501;BME280;61721;42.206;25.320;2023-06-14T01:56:23;99113.22;;;21.33;61.08
73501;BME280;61721;42.206;25.320;2023-06-14T01:58:59;99119.59;;;21.39;60.78
73501;BME280;61721;42.206;25.320;2023-06-14T02:01:35;99115.41;;;21.20;60.95
73501;BME280;61721;42.206;25.320;2023-06-14T02:04:11;99118.34;;;21.30;60.72
73501;BME280;61721;42.206;25.320;2023-06-14T02:06:47;99113.66;;;21.14;61.96
73501;BME280;61721;42.206;25.320;2023-06-14T02:09:23;99119.19;;;21.47;60.60
73501;BME280;61721;42.206;25.320;2023-06-14T02:12:01;99124.25;;;21.38;60.83
73501;BME280;61721;42.206;25.320;2023-06-14T02:14:37;99124.16;;;21.33;60.81
73501;BME280;61721;42.206;25.320;2023-06-14T02:17:14;99122.44;;;21.16;61.41
73501;BME280;61721;42.206;25.320;2023-06-14T02:19:49;99121.50;;;21.22;61.04
73501;BME280;61721;42.206;25.320;2023-06-14T02:22:26;99123.84;;;21.47;60.35
73501;BME280;61721;42.206;25.320;2023-06-14T02:25:03;99120.03;;;21.64;59.97
73501;BME280;61721;42.206;25.320;2023-06-14T02:27:42;99119.94;;;21.59;59.87
73501;BME280;61721;42.206;25.320;2023-06-14T02:30:18;99117.19;;;21.26;60.43
73501;BME280;61721;42.206;25.320;2023-06-14T02:32:54;99117.69;;;21.39;60.67
73501;BME280;61721;42.206;25.320;2023-06-14T02:35:31;99124.84;;;21.41;60.60
73501;BME280;61721;42.206;25.320;2023-06-14T02:38:07;99123.91;;;21.35;60.75
73501;BME280;61721;42.206;25.320;2023-06-14T02:40:43;99125.50;;;21.48;60.83
73501;BME280;61721;42.206;25.320;2023-06-14T02:43:22;99126.34;;;21.48;60.21
73501;BME280;61721;42.206;25.320;2023-06-14T02:45:58;99126.31;;;21.31;60.83
73501;BME280;61721;42.206;25.320;2023-06-14T02:48:34;99121.25;;;21.23;61.54
73501;BME280;61721;42.206;25.320;2023-06-14T02:51:09;99129.09;;;21.20;61.18
73501;BME280;61721;42.206;25.320;2023-06-14T02:53:45;99123.44;;;21.10;61.63
73501;BME280;61721;42.206;25.320;2023-06-14T02:56:27;99132.47;;;21.38;61.11
73501;BME280;61721;42.206;25.320;2023-06-14T02:59:06;99130.31;;;21.12;61.37
73501;BME280;61721;42.206;25.320;2023-06-14T03:01:42;99126.41;;;21.08;61.71
73501;BME280;61721;42.206;25.320;2023-06-14T03:04:18;99131.88;;;21.36;60.72
73501;BME280;61721;42.206;25.320;2023-06-14T03:06:54;99139.44;;;21.29;61.00
73501;BME280;61721;42.206;25.320;2023-06-14T03:09:31;99134.88;;;21.06;61.32
73501;BME280;61721;42.206;25.320;2023-06-14T03:12:08;99146.50;;;21.42;60.33
73501;BME280;61721;42.206;25.320;2023-06-14T03:14:47;99148.91;;;21.55;60.22
73501;BME280;61721;42.206;25.320;2023-06-14T03:17:26;99159.53;;;21.35;61.06
73501;BME280;61721;42.206;25.320;2023-06-14T03:20:07;99150.72;;;21.33;61.32
73501;BME280;61721;42.206;25.320;2023-06-14T03:22:43;99156.47;;;21.20;61.69
73501;BME280;61721;42.206;25.320;2023-06-14T03:25:20;99156.03;;;21.23;61.90
73501;BME280;61721;42.206;25.320;2023-06-14T03:27:58;99157.56;;;21.47;61.41
73501;BME280;61721;42.206;25.320;2023-06-14T03:30:37;99154.69;;;21.25;62.15
73501;BME280;61721;42.206;25.320;2023-06-14T03:33:13;99159.34;;;21.25;62.19
73501;BME280;61721;42.206;25.320;2023-06-14T03:35:50;99168.00;;;21.50;61.87
73501;BME280;61721;42.206;25.320;2023-06-14T03:38:26;99170.31;;;21.42;61.77
73501;BME280;61721;42.206;25.320;2023-06-14T03:41:02;99164.69;;;21.48;61.67
73501;BME280;61721;42.206;25.320;2023-06-14T03:43:38;99159.38;;;21.58;61.01
73501;BME280;61721;42.206;25.320;2023-06-14T03:46:16;99160.03;;;21.32;61.75
73501;BME280;61721;42.206;25.320;2023-06-14T03:48:52;99167.50;;;21.36;61.72
73501;BME280;61721;42.206;25.320;2023-06-14T03:51:29;99169.19;;;21.54;60.67
73501;BME280;61721;42.206;25.320;2023-06-14T03:54:14;99169.91;;;21.33;61.18
73501;BME280;61721;42.206;25.320;2023-06-14T03:57:01;99179.41;;;21.59;60.50
73501;BME280;61721;42.206;25.320;2023-06-14T03:59:43;99175.50;;;21.55;60.02
73501;BME280;61721;42.206;25.320;2023-06-14T04:02:21;99183.81;;;21.77;60.47
73501;BME280;61721;42.206;25.320;2023-06-14T04:05:00;99187.28;;;21.72;60.07
73501;BME280;61721;42.206;25.320;2023-06-14T04:07:38;99196.34;;;21.73;60.38
73501;BME280;61721;42.206;25.320;2023-06-14T04:10:17;99194.34;;;21.85;59.53
73501;BME280;61721;42.206;25.320;2023-06-14T04:12:53;99196.75;;;21.81;59.49
73501;BME280;61721;42.206;25.320;2023-06-14T04:15:29;99200.44;;;22.03;59.01
73501;BME280;61721;42.206;25.320;2023-06-14T04:18:08;99207.31;;;21.73;60.29
73501;BME280;61721;42.206;25.320;2023-06-14T04:20:44;99203.31;;;21.63;60.46
73501;BME280;61721;42.206;25.320;2023-06-14T04:23:20;99210.31;;;21.88;59.58
73501;BME280;61721;42.206;25.320;2023-06-14T04:25:56;99208.72;;;21.92;59.35
73501;BME280;61721;42.206;25.320;2023-06-14T04:28:34;99211.88;;;21.84;60.25
73501;BME280;61721;42.206;25.320;2023-06-14T04:31:12;99215.13;;;21.97;59.58
73501;BME280;61721;42.206;25.320;2023-06-14T04:33:50;99211.81;;;22.12;59.30
73501;BME280;61721;42.206;25.320;2023-06-14T04:36:26;99224.03;;;22.21;58.94
73501;BME280;61721;42.206;25.320;2023-06-14T04:39:03;99209.50;;;22.21;59.40
73501;BME280;61721;42.206;25.320;2023-06-14T04:41:40;99226.69;;;22.16;59.31
73501;BME280;61721;42.206;25.320;2023-06-14T04:44:16;99227.13;;;22.08;59.26
73501;BME280;61721;42.206;25.320;2023-06-14T04:46:52;99225.84;;;21.99;59.64
73501;BME280;61721;42.206;25.320;2023-06-14T04:49:31;99225.16;;;21.75;60.08
73501;BME280;61721;42.206;25.320;2023-06-14T04:52:07;99227.34;;;21.90;60.39
73501;BME280;61721;42.206;25.320;2023-06-14T04:54:45;99225.78;;;22.27;59.21
73501;BME280;61721;42.206;25.320;2023-06-14T04:57:30;99231.44;;;22.04;59.49
73501;BME280;61721;42.206;25.320;2023-06-14T05:00:09;99232.47;;;21.86;59.79
73501;BME280;61721;42.206;25.320;2023-06-14T05:02:46;99230.84;;;22.35;58.77
73501;BME280;61721;42.206;25.320;2023-06-14T05:05:26;99244.16;;;22.65;57.44
73501;BME280;61721;42.206;25.320;2023-06-14T05:08:02;99239.56;;;22.71;57.36
73501;BME280;61721;42.206;25.320;2023-06-14T05:10:38;99244.16;;;22.10;57.72
73501;BME280;61721;42.206;25.320;2023-06-14T05:13:14;99244.66;;;22.07;58.68
73501;BME280;61721;42.206;25.320;2023-06-14T05:15:50;99253.91;;;21.89;58.38
73501;BME280;61721;42.206;25.320;2023-06-14T05:18:26;99243.59;;;21.80;58.13
73501;BME280;61721;42.206;25.320;2023-06-14T05:21:04;99253.63;;;22.36;56.62
73501;BME280;61721;42.206;25.320;2023-06-14T05:23:40;99255.16;;;21.98;59.03
73501;BME280;61721;42.206;25.320;2023-06-14T05:26:16;99256.75;;;22.45;57.23
73501;BME280;61721;42.206;25.320;2023-06-14T05:28:52;99265.34;;;22.31;57.57
73501;BME280;61721;42.206;25.320;2023-06-14T05:31:28;99269.56;;;22.56;57.01
73501;BME280;61721;42.206;25.320;2023-06-14T05:34:04;99270.66;;;22.21;57.93
73501;BME280;61721;42.206;25.320;2023-06-14T05:36:43;99265.22;;;22.60;57.27
73501;BME280;61721;42.206;25.320;2023-06-14T05:39:19;99269.91;;;22.43;58.35
73501;BME280;61721;42.206;25.320;2023-06-14T05:41:56;99276.06;;;22.16;58.79
73501;BME280;61721;42.206;25.320;2023-06-14T05:44:32;99280.22;;;22.02;58.84
73501;BME280;61721;42.206;25.320;2023-06-14T05:47:08;99276.63;;;22.52;58.11
73501;BME280;61721;42.206;25.320;2023-06-14T05:49:44;99273.97;;;22.95;55.61
73501;BME280;61721;42.206;25.320;2023-06-14T05:52:22;99275.97;;;22.45;56.89
73501;BME280;61721;42.206;25.320;2023-06-14T05:55:06;99286.25;;;23.10;55.63
73501;BME280;61721;42.206;25.320;2023-06-14T05:57:44;99283.16;;;22.67;57.42
73501;BME280;61721;42.206;25.320;2023-06-14T06:00:20;99280.81;;;22.76;57.49
73501;BME280;61721;42.206;25.320;2023-06-14T06:02:57;99286.81;;;22.73;58.16
73501;BME280;61721;42.206;25.320;2023-06-14T06:05:33;99287.19;;;22.98;57.44
73501;BME280;61721;42.206;25.320;2023-06-14T06:08:12;99296.78;;;22.96;57.96
73501;BME280;61721;42.206;25.320;2023-06-14T06:10:48;99293.19;;;22.23;60.02
73501;BME280;61721;42.206;25.320;2023-06-14T06:13:25;99289.53;;;22.34;60.17
73501;BME280;61721;42.206;25.320;2023-06-14T06:16:01;99290.00;;;22.48;60.19
73501;BME280;61721;42.206;25.320;2023-06-14T06:18:36;99286.09;;;22.61;59.77
73501;BME280;61721;42.206;25.320;2023-06-14T06:21:12;99285.16;;;22.72;59.81
73501;BME280;61721;42.206;25.320;2023-06-14T06:23:51;99289.00;;;22.54;59.77
73501;BME280;61721;42.206;25.320;2023-06-14T06:26:27;99287.44;;;22.97;59.04
73501;BME280;61721;42.206;25.320;2023-06-14T06:29:03;99289.81;;;22.88;59.53
73501;BME280;61721;42.206;25.320;2023-06-14T06:34:40;99293.91;;;23.08;56.69
73501;BME280;61721;42.206;25.320;2023-06-14T06:37:15;99290.28;;;23.51;55.10
73501;BME280;61721;42.206;25.320;2023-06-14T06:39:54;99295.69;;;23.19;56.81
73501;BME280;61721;42.206;25.320;2023-06-14T06:42:30;99295.31;;;23.32;57.26
73501;BME280;61721;42.206;25.320;2023-06-14T06:45:07;99297.31;;;23.63;57.09
73501;BME280;61721;42.206;25.320;2023-06-14T06:47:43;99307.59;;;24.00;56.50
73501;BME280;61721;42.206;25.320;2023-06-14T06:50:20;99304.00;;;24.00;55.92
73501;BME280;61721;42.206;25.320;2023-06-14T06:52:57;99310.25;;;23.90;55.88
73501;BME280;61721;42.206;25.320;2023-06-14T06:55:36;99304.22;;;23.44;55.45
73501;BME280;61721;42.206;25.320;2023-06-14T06:58:19;99302.09;;;23.51;55.55
73501;BME280;61721;42.206;25.320;2023-06-14T07:00:55;99306.50;;;23.74;55.13
73501;BME280;61721;42.206;25.320;2023-06-14T07:03:31;99314.94;;;24.21;54.89
73501;BME280;61721;42.206;25.320;2023-06-14T07:06:07;99310.78;;;23.38;55.53
73501;BME280;61721;42.206;25.320;2023-06-14T07:08:45;99312.72;;;23.91;53.98
73501;BME280;61721;42.206;25.320;2023-06-14T07:11:25;99317.16;;;23.92;53.32
73501;BME280;61721;42.206;25.320;2023-06-14T07:14:01;99317.59;;;23.57;53.91
73501;BME280;61721;42.206;25.320;2023-06-14T07:16:37;99313.09;;;23.51;53.47
73501;BME280;61721;42.206;25.320;2023-06-14T07:19:15;99310.84;;;24.24;51.53
73501;BME280;61721;42.206;25.320;2023-06-14T07:21:51;99315.88;;;24.05;51.94
73501;BME280;61721;42.206;25.320;2023-06-14T07:24:27;99316.19;;;24.09;49.91
73501;BME280;61721;42.206;25.320;2023-06-14T07:27:06;99303.88;;;24.85;49.01
73501;BME280;61721;42.206;25.320;2023-06-14T07:29:42;99300.44;;;24.63;51.37
73501;BME280;61721;42.206;25.320;2023-06-14T07:32:19;99307.34;;;25.08;48.87
73501;BME280;61721;42.206;25.320;2023-06-14T07:34:54;99304.00;;;25.01;48.61
73501;BME280;61721;42.206;25.320;2023-06-14T07:37:30;99313.97;;;25.12;49.40
73501;BME280;61721;42.206;25.320;2023-06-14T07:40:08;99309.00;;;25.76;47.95
73501;BME280;61721;42.206;25.320;2023-06-14T07:42:48;99304.88;;;26.04;47.50
73501;BME280;61721;42.206;25.320;2023-06-14T07:45:26;99307.44;;;25.28;47.56
73501;BME280;61721;42.206;25.320;2023-06-14T07:48:03;99304.59;;;25.08;50.15
73501;BME280;61721;42.206;25.320;2023-06-14T07:50:39;99301.81;;;25.08;48.27
73501;BME280;61721;42.206;25.320;2023-06-14T07:53:15;99308.28;;;24.44;48.49
73501;BME280;61721;42.206;25.320;2023-06-14T07:55:51;99306.66;;;24.90;47.16
73501;BME280;61721;42.206;25.320;2023-06-14T07:58:31;99309.69;;;25.41;45.46
73501;BME280;61721;42.206;25.320;2023-06-14T08:01:14;99312.34;;;25.88;45.27
73501;BME280;61721;42.206;25.320;2023-06-14T08:03:52;99312.38;;;26.49;44.89
73501;BME280;61721;42.206;25.320;2023-06-14T08:06:28;99318.72;;;26.65;44.15
73501;BME280;61721;42.206;25.320;2023-06-14T08:09:05;99308.78;;;26.54;44.88
73501;BME280;61721;42.206;25.320;2023-06-14T08:11:41;99309.56;;;26.09;45.52
73501;BME280;61721;42.206;25.320;2023-06-14T08:14:20;99305.16;;;26.28;45.54
73501;BME280;61721;42.206;25.320;2023-06-14T08:16:56;99305.97;;;26.84;44.93
73501;BME280;61721;42.206;25.320;2023-06-14T08:19:32;99310.75;;;25.30;47.32
73501;BME280;61721;42.206;25.320;2023-06-14T08:22:08;99308.47;;;25.90;47.22
73501;BME280;61721;42.206;25.320;2023-06-14T08:24:45;99311.53;;;26.39;45.84
73501;BME280;61721;42.206;25.320;2023-06-14T08:27:20;99309.34;;;25.22;47.82
73501;BME280;61721;42.206;25.320;2023-06-14T08:29:59;99316.03;;;25.47;46.38
73501;BME280;61721;42.206;25.320;2023-06-14T08:32:35;99308.75;;;26.18;46.20
73501;BME280;61721;42.206;25.320;2023-06-14T08:35:12;99309.84;;;26.23;45.21
73501;BME280;61721;42.206;25.320;2023-06-14T08:37:49;99318.41;;;26.21;45.74
73501;BME280;61721;42.206;25.320;2023-06-14T08:40:27;99312.94;;;26.36;44.41
73501;BME280;61721;42.206;25.320;2023-06-14T08:43:06;99315.41;;;26.53;43.94
73501;BME280;61721;42.206;25.320;2023-06-14T08:45:46;99315.97;;;26.35;44.62
73501;BME280;61721;42.206;25.320;2023-06-14T08:48:26;99319.28;;;26.42;43.98
73501;BME280;61721;42.206;25.320;2023-06-14T08:51:05;99315.31;;;27.09;42.85
73501;BME280;61721;42.206;25.320;2023-06-14T08:53:52;99317.91;;;27.60;42.04
73501;BME280;61721;42.206;25.320;2023-06-14T08:56:30;99311.53;;;26.64;43.22
73501;BME280;61721;42.206;25.320;2023-06-14T08:59:07;99321.53;;;27.50;42.62
73501;BME280;61721;42.206;25.320;2023-06-14T09:01:46;99327.03;;;27.60;42.26
73501;BME280;61721;42.206;25.320;2023-06-14T09:04:24;99327.84;;;27.56;41.97
73501;BME280;61721;42.206;25.320;2023-06-14T09:07:02;99326.66;;;27.12;43.46
73501;BME280;61721;42.206;25.320;2023-06-14T09:09:39;99321.09;;;27.23;43.06
73501;BME280;61721;42.206;25.320;2023-06-14T09:12:15;99317.63;;;27.61;41.34
73501;BME280;61721;42.206;25.320;2023-06-14T09:14:51;99324.06;;;27.36;41.64
73501;BME280;61721;42.206;25.320;2023-06-14T09:17:32;99319.97;;;27.29;42.51
73501;BME280;61721;42.206;25.320;2023-06-14T09:20:10;99316.91;;;27.30;42.35
73501;BME280;61721;42.206;25.320;2023-06-14T09:22:50;99314.56;;;26.58;44.61
73501;BME280;61721;42.206;25.320;2023-06-14T09:25:25;99311.78;;;26.02;45.24
73501;BME280;61721;42.206;25.320;2023-06-14T09:28:01;99311.53;;;26.64;44.28
73501;BME280;61721;42.206;25.320;2023-06-14T09:30:38;99304.88;;;26.75;44.13
73501;BME280;61721;42.206;25.320;2023-06-14T09:33:20;99301.53;;;26.94;43.14
73501;BME280;61721;42.206;25.320;2023-06-14T09:35:55;99304.31;;;26.99;43.66
73501;BME280;61721;42.206;25.320;2023-06-14T09:38:34;99301.25;;;26.95;44.03
73501;BME280;61721;42.206;25.320;2023-06-14T09:41:10;99302.56;;;27.23;44.09
73501;BME280;61721;42.206;25.320;2023-06-14T09:43:47;99303.34;;;27.88;42.71
73501;BME280;61721;42.206;25.320;2023-06-14T09:46:22;99312.78;;;27.87;41.74
73501;BME280;61721;42.206;25.320;2023-06-14T09:49:02;99292.41;;;26.98;43.15
73501;BME280;61721;42.206;25.320;2023-06-14T09:51:43;99296.84;;;27.69;41.94
73501;BME280;61721;42.206;25.320;2023-06-14T09:54:22;99299.25;;;27.80;41.57
73501;BME280;61721;42.206;25.320;2023-06-14T09:56:59;99285.75;;;27.74;41.21
73501;BME280;61721;42.206;25.320;2023-06-14T09:59:41;99293.28;;;28.02;41.66
73501;BME280;61721;42.206;25.320;2023-06-14T10:02:22;99298.75;;;27.73;41.56
73501;BME280;61721;42.206;25.320;2023-06-14T10:05:05;99286.94;;;27.53;40.63
73501;BME280;61721;42.206;25.320;2023-06-14T10:07:48;99284.19;;;27.53;41.45
73501;BME280;61721;42.206;25.320;2023-06-14T10:10:24;99280.03;;;27.50;41.83
73501;BME280;61721;42.206;25.320;2023-06-14T10:13:00;99281.53;;;28.26;40.76
73501;BME280;61721;42.206;25.320;2023-06-14T10:15:47;99284.88;;;28.23;40.47
73501;BME280;61721;42.206;25.320;2023-06-14T10:18:33;99271.91;;;27.74;41.79
73501;BME280;61721;42.206;25.320;2023-06-14T10:21:21;99277.75;;;27.03;43.26
73501;BME280;61721;42.206;25.320;2023-06-14T10:24:01;99281.44;;;27.97;41.14
73501;BME280;61721;42.206;25.320;2023-06-14T10:26:50;99275.09;;;28.30;40.21
73501;BME280;61721;42.206;25.320;2023-06-14T10:29:27;99272.44;;;27.76;40.50
73501;BME280;61721;42.206;25.320;2023-06-14T10:32:05;99267.88;;;27.95;41.04
73501;BME280;61721;42.206;25.320;2023-06-14T10:34:41;99263.91;;;28.69;40.50
73501;BME280;61721;42.206;25.320;2023-06-14T10:37:21;99276.38;;;28.96;38.91
73501;BME280;61721;42.206;25.320;2023-06-14T10:39:58;99272.94;;;28.56;39.56
73501;BME280;61721;42.206;25.320;2023-06-14T10:42:34;99262.69;;;27.89;40.30
73501;BME280;61721;42.206;25.320;2023-06-14T10:45:13;99260.28;;;28.98;39.29
73501;BME280;61721;42.206;25.320;2023-06-14T10:47:49;99265.28;;;29.20;39.10
73501;BME280;61721;42.206;25.320;2023-06-14T10:50:28;99254.50;;;28.94;39.34
73501;BME280;61721;42.206;25.320;2023-06-14T10:53:24;99253.91;;;28.97;38.93
73501;BME280;61721;42.206;25.320;2023-06-14T10:56:06;99255.59;;;28.69;39.29
73501;BME280;61721;42.206;25.320;2023-06-14T10:58:50;99249.59;;;28.86;38.77
73501;BME280;61721;42.206;25.320;2023-06-14T11:01:32;99258.41;;;28.64;39.43
73501;BME280;61721;42.206;25.320;2023-06-14T11:04:13;99256.41;;;28.46;39.83
73501;BME280;61721;42.206;25.320;2023-06-14T11:06:49;99256.56;;;28.84;39.75
73501;BME280;61721;42.206;25.320;2023-06-14T11:09:52;99252.34;;;27.99;39.91
73501;BME280;61721;42.206;25.320;2023-06-14T11:12:35;99253.28;;;27.35;41.49
73501;BME280;61721;42.206;25.320;2023-06-14T11:15:14;99247.56;;;27.16;41.31
73501;BME280;61721;42.206;25.320;2023-06-14T11:17:51;99239.47;;;27.85;41.24
73501;BME280;61721;42.206;25.320;2023-06-14T11:20:31;99241.88;;;28.30;39.99
73501;BME280;61721;42.206;25.320;2023-06-14T11:23:07;99240.66;;;28.07;40.00
73501;BME280;61721;42.206;25.320;2023-06-14T11:25:49;99235.31;;;28.50;39.64
73501;BME280;61721;42.206;25.320;2023-06-14T11:28:35;99241.28;;;28.33;39.89
73501;BME280;61721;42.206;25.320;2023-06-14T11:31:12;99245.97;;;27.65;40.76
73501;BME280;61721;42.206;25.320;2023-06-14T11:33:50;99231.66;;;27.47;42.12
73501;BME280;61721;42.206;25.320;2023-06-14T11:36:27;99241.75;;;27.72;42.21
73501;BME280;61721;42.206;25.320;2023-06-14T11:39:05;99240.38;;;27.70;40.86
73501;BME280;61721;42.206;25.320;2023-06-14T11:41:45;99237.91;;;27.68;40.99
73501;BME280;61721;42.206;25.320;2023-06-14T11:44:20;99239.66;;;27.93;41.02
73501;BME280;61721;42.206;25.320;2023-06-14T11:46:56;99235.38;;;28.11;39.99
73501;BME280;61721;42.206;25.320;2023-06-14T11:49:35;99226.81;;;28.07;40.29
73501;BME280;61721;42.206;25.320;2023-06-14T11:52:11;99222.84;;;27.85;40.32
73501;BME280;61721;42.206;25.320;2023-06-14T11:54:56;99224.19;;;27.92;41.12
73501;BME280;61721;42.206;25.320;2023-06-14T11:57:36;99219.53;;;28.17;40.36
73501;BME280;61721;42.206;25.320;2023-06-14T12:00:14;99222.09;;;27.74;40.29
73501;BME280;61721;42.206;25.320;2023-06-14T12:02:54;99218.13;;;28.19;39.59
73501;BME280;61721;42.206;25.320;2023-06-14T12:05:33;99217.47;;;27.98;39.45
73501;BME280;61721;42.206;25.320;2023-06-14T12:08:09;99215.50;;;28.38;39.77
73501;BME280;61721;42.206;25.320;2023-06-14T12:10:51;99214.06;;;28.64;38.61
73501;BME280;61721;42.206;25.320;2023-06-14T12:13:30;99215.56;;;28.57;38.52
73501;BME280;61721;42.206;25.320;2023-06-14T12:16:07;99209.63;;;28.10;39.17
73501;BME280;61721;42.206;25.320;2023-06-14T12:18:44;99212.31;;;28.73;38.61
73501;BME280;61721;42.206;25.320;2023-06-14T12:21:23;99199.88;;;28.95;38.10
73501;BME280;61721;42.206;25.320;2023-06-14T12:23:59;99200.25;;;28.88;38.49
73501;BME280;61721;42.206;25.320;2023-06-14T12:26:39;99205.56;;;29.27;37.68
73501;BME280;61721;42.206;25.320;2023-06-14T12:29:19;99202.00;;;29.46;37.00
73501;BME280;61721;42.206;25.320;2023-06-14T12:31:56;99195.63;;;28.78;37.67
73501;BME280;61721;42.206;25.320;2023-06-14T12:34:33;99193.34;;;28.86;37.50
73501;BME280;61721;42.206;25.320;2023-06-14T12:37:09;99204.88;;;29.17;37.37
73501;BME280;61721;42.206;25.320;2023-06-14T12:39:44;99191.75;;;29.22;37.19
73501;BME280;61721;42.206;25.320;2023-06-14T12:42:21;99193.25;;;29.15;37.39
73501;BME280;61721;42.206;25.320;2023-06-14T12:44:59;99192.19;;;29.11;37.96
73501;BME280;61721;42.206;25.320;2023-06-14T12:47:36;99185.44;;;28.98;38.17
73501;BME280;61721;42.206;25.320;2023-06-14T12:50:12;99181.41;;;29.09;37.70
73501;BME280;61721;42.206;25.320;2023-06-14T12:52:48;99186.38;;;29.31;37.32
73501;BME280;61721;42.206;25.320;2023-06-14T12:55:23;99180.13;;;29.01;38.35
73501;BME280;61721;42.206;25.320;2023-06-14T12:58:06;99170.66;;;29.64;37.77
73501;BME280;61721;42.206;25.320;2023-06-14T13:00:47;99172.13;;;29.75;37.02
73501;BME280;61721;42.206;25.320;2023-06-14T13:03:24;99168.25;;;29.57;37.11
73501;BME280;61721;42.206;25.320;2023-06-14T13:06:00;99166.59;;;29.56;36.98
73501;BME280;61721;42.206;25.320;2023-06-14T13:08:37;99162.97;;;29.37;37.23
73501;BME280;61721;42.206;25.320;2023-06-14T13:11:12;99162.38;;;29.21;36.61
73501;BME280;61721;42.206;25.320;2023-06-14T13:13:49;99151.75;;;29.47;36.29
73501;BME280;61721;42.206;25.320;2023-06-14T13:16:27;99153.50;;;29.43;36.35
73501;BME280;61721;42.206;25.320;2023-06-14T13:19:04;99152.91;;;29.79;36.83
73501;BME280;61721;42.206;25.320;2023-06-14T13:21:39;99161.28;;;29.60;37.45
73501;BME280;61721;42.206;25.320;2023-06-14T13:24:16;99155.81;;;29.55;37.75
73501;BME280;61721;42.206;25.320;2023-06-14T13:26:51;99149.88;;;29.24;38.19
73501;BME280;61721;42.206;25.320;2023-06-14T13:29:27;99157.03;;;29.06;40.25
73501;BME280;61721;42.206;25.320;2023-06-14T13:32:06;99147.91;;;29.24;39.57
73501;BME280;61721;42.206;25.320;2023-06-14T13:34:43;99149.00;;;29.47;40.15
73501;BME280;61721;42.206;25.320;2023-06-14T13:37:19;99151.81;;;29.61;39.41
73501;BME280;61721;42.206;25.320;2023-06-14T13:39:55;99155.03;;;29.30;39.61
73501;BME280;61721;42.206;25.320;2023-06-14T13:42:31;99155.81;;;29.55;38.97
73501;BME280;61721;42.206;25.320;2023-06-14T13:45:09;99150.13;;;29.46;38.59
73501;BME280;61721;42.206;25.320;2023-06-14T13:47:48;99147.31;;;29.08;38.91
73501;BME280;61721;42.206;25.320;2023-06-14T13:50:25;99149.84;;;29.05;39.31